Latest Weather Observations for Canberra

IDN60801

Issued at 4:02 pm EST Friday 29 May 2015 (issued every 30 minutes, with the page automatically refreshed every 10 minutes)

About weather observations | Map of weather stations | Latest weather observations for NSW | Other Formats
Station Details ID: 070351 Name: CANBERRA AIRPORT Lat: -35.31 Lon: 149.20 Height: 577.05 m
Data from the previous 72 hours. | See also: Recent months at Canberra
Date/Time
EST
Temp
°C
App
Temp
°C
Dew
Point
Rel
Hum
%
Delta-T
°C
Wind Press
QNH
hPa
Press
MSL
hPa
Rain
since 9 am
mm
Dir
 
Spd
km/h
Gust
km/h
Spd
kts
Gust
kts
29/04:00pm 15.1 10.7 4.5 49 5.1 WNW 17 26 9 14 1020.7 - 0.0
29/03:30pm 15.8 11.0 4.8 48 5.3 WNW 19 28 10 15 1020.8 - 0.0
29/03:00pm 16.2 10.6 5.2 48 5.4 WNW 24 33 13 18 1020.7 1021.1 0.0
29/02:30pm 16.7 11.5 5.3 47 5.6 WNW 22 32 12 17 1020.5 - 0.0
29/02:00pm 16.7 11.9 5.6 48 5.5 WNW 20 28 11 15 1020.3 - 0.0
29/01:30pm 16.4 10.8 5.4 48 5.4 WNW 24 33 13 18 1020.5 - 0.0
29/01:00pm 16.2 11.1 4.3 45 5.7 WNW 20 30 11 16 1020.5 - 0.0
29/12:30pm 15.9 10.9 4.6 47 5.5 WNW 20 28 11 15 1020.5 - 0.0
29/12:00pm 15.9 10.2 4.9 48 5.3 W 24 39 13 21 1020.6 1021.0 0.0
29/11:30am 16.1 10.3 4.5 46 5.6 W 24 35 13 19 1020.9 - 0.0
29/11:00am 16.1 10.4 4.8 47 5.5 WNW 24 32 13 17 1021.4 - 0.0
29/10:30am 16.1 10.8 5.1 48 5.4 WNW 22 30 12 16 1021.2 - 0.0
29/10:00am 14.9 10.0 4.9 51 4.8 WNW 20 28 11 15 1021.3 - 0.0
29/09:30am 15.2 10.8 6.7 57 4.3 N 19 26 10 14 1020.9 - 0.0
29/09:00am 13.8 9.7 6.4 61 3.7 NNW 17 20 9 11 1020.7 1021.1 0.0
29/08:30am 12.9 9.7 8.4 74 2.3 N 15 19 8 10 1020.7 - 0.0
29/08:00am 11.9 8.4 8.6 80 1.7 N 17 28 9 15 1020.3 - 0.0
29/07:30am 11.1 7.6 8.7 85 1.2 N 17 26 9 14 1019.6 - 0.0
29/07:00am 10.5 6.1 8.8 89 0.9 NNW 22 28 12 15 1019.5 - 0.0
29/06:30am 10.5 7.1 9.1 91 0.7 NNW 17 24 9 13 1019.0 - 0.0
29/05:30am 10.5 7.2 9.6 94 0.5 NNW 17 20 9 11 1018.4 - 0.0
29/05:00am 10.6 7.3 9.4 92 0.6 NNW 17 22 9 12 1018.2 - 0.0
29/04:30am 11.1 7.6 10.2 94 0.5 NNW 19 24 10 13 1018.4 - 0.0
29/04:00am 11.2 7.8 10.4 95 0.4 NNW 19 22 10 12 1018.1 - 0.0
29/03:30am 11.6 8.0 10.5 93 0.6 NNW 20 28 11 15 1018.3 - 0.0
29/03:00am 12.6 7.1 10.7 88 1.0 NNW 30 39 16 21 1018.4 1018.8 0.0
29/02:30am 12.7 7.8 11.3 91 0.8 NNW 28 33 15 18 1018.3 - 0.0
29/02:00am 12.8 9.0 11.2 90 0.9 NNW 22 30 12 16 1018.4 - 0.0
29/01:30am 12.8 8.6 11.2 90 0.9 NNW 24 30 13 16 1018.6 - 0.0
29/01:00am 12.9 8.4 11.5 91 0.8 NNW 26 32 14 17 1018.7 - 0.0
29/12:50am 12.9 9.2 11.5 91 0.8 NNW 22 30 12 16 1018.7 - 0.0
29/12:30am 13.0 8.6 11.6 91 0.8 NNW 26 39 14 21 1018.8 - 0.0
29/12:00am 12.9 8.1 11.6 92 0.7 NNW 28 35 15 19 1019.0 1019.4 0.0
 
Date/Time
EST
Temp
°C
App
Temp
°C
Dew
Point
Rel
Hum
%
Delta-T
°C
Wind Press
QNH
hPa
Press
MSL
hPa
Rain
since 9 am
mm
Dir
 
Spd
km/h
Gust
km/h
Spd
kts
Gust
kts
28/11:30pm 12.9 8.1 11.5 91 0.8 NNW 28 41 15 22 1019.1 - 0.0
28/11:00pm 12.9 7.7 11.6 92 0.7 NNW 30 39 16 21 1019.4 - 0.0
28/10:30pm 13.2 7.6 11.6 90 0.9 NW 32 43 17 23 1019.6 - 0.0
28/10:00pm 12.8 8.0 11.5 92 0.7 NNW 28 39 15 21 1019.6 - 0.0
28/09:30pm 12.4 7.9 11.3 93 0.6 NNW 26 33 14 18 1020.0 - 0.0
28/09:00pm 12.8 8.0 11.5 92 0.7 NNW 28 35 15 19 1020.4 1020.8 0.0
28/08:30pm 12.5 9.6 11.1 91 0.8 NNW 17 20 9 11 1020.1 - 0.0
28/08:10pm 12.3 9.4 11.0 92 0.7 NNW 17 24 9 13 1020.2 - 0.0
28/08:00pm 12.1 9.1 10.8 92 0.7 N 17 20 9 11 1020.1 - 0.0
28/07:30pm 12.0 9.0 10.7 92 0.7 N 17 20 9 11 1020.1 - 0.0
28/07:00pm 11.9 8.9 10.5 91 0.7 N 17 20 9 11 1020.3 - 0.0
28/06:30pm 9.5 8.1 8.7 95 0.4 NE 6 7 3 4 1020.2 - 0.0
28/06:00pm 8.8 7.8 7.4 91 0.7 N 2 7 1 4 1020.5 1020.9 0.0
28/05:30pm 10.2 7.8 8.6 90 0.8 NNE 11 13 6 7 1020.3 - 0.0
28/05:00pm 11.2 8.9 9.1 87 1.1 N 11 13 6 7 1020.2 - 0.0
28/04:30pm 12.5 9.8 9.1 80 1.8 NNW 13 20 7 11 1020.6 - 0.0
28/04:00pm 13.8 11.3 9.6 76 2.2 NNW 13 17 7 9 1020.7 - 0.0
28/03:30pm 14.0 11.1 9.8 76 2.2 NNW 15 19 8 10 1020.7 - 0.0
28/03:00pm 14.2 11.7 9.6 74 2.4 NNW 13 19 7 10 1020.7 1021.1 0.0
28/02:30pm 13.8 10.6 10.0 78 2.0 N 17 22 9 12 1021.1 - 0.0
28/02:00pm 13.7 10.4 9.6 76 2.2 NNW 17 22 9 12 1021.1 - 0.0
28/01:30pm 11.9 8.9 9.3 84 1.4 NNW 15 19 8 10 1021.6 - 0.0
28/01:00pm 11.9 8.4 8.6 80 1.7 NW 17 20 9 11 1022.0 - 0.0
28/12:30pm 11.9 10.3 8.7 81 1.6 N 7 11 4 6 1022.2 - 0.0
28/12:00pm 10.8 9.7 8.4 85 1.2 NW 4 7 2 4 1022.6 1023.1 0.0
28/11:30am 10.4 9.6 8.3 87 1.1 ESE 2 7 1 4 1023.1 - 0.0
28/11:00am 10.0 9.7 8.8 92 0.6 CALM 0 6 0 3 1023.8 - 0.0
28/10:41am 9.2 7.5 8.3 94 0.4 E 7 9 4 5 1024.0 - 0.0
28/10:30am 8.8 7.2 8.2 96 0.3 SE 6 9 3 5 1024.1 - 0.0
28/10:00am 8.2 6.8 7.3 94 0.4 NW 4 9 2 5 1024.4 - 0.0
28/09:35am 7.5 5.4 6.6 94 0.4 NNW 7 9 4 5 1024.3 - 0.0
28/09:15am 7.2 5.1 6.5 95 0.3 N 7 9 4 5 1024.3 - 0.0
28/09:00am 7.1 5.3 7.0 99 0.0 NE 6 9 3 5 1024.3 1024.8 0.0
28/08:30am 5.6 4.6 5.5 99 0.0 CALM 0 0 0 0 1024.2 - 0.0
28/08:00am 5.2 4.1 5.1 99 0.0 CALM 0 0 0 0 1024.2 - 0.0
28/07:30am 4.1 2.4 4.0 99 0.0 SE 2 9 1 5 1024.0 - 0.0
28/07:00am 3.9 1.2 3.8 99 0.0 ENE 7 11 4 6 1024.0 - 0.0
28/06:30am 3.2 1.7 3.1 99 0.0 CALM 0 0 0 0 1024.0 - 0.0
28/06:00am 2.0 0.3 1.9 99 0.0 CALM 0 0 0 0 1023.6 1024.0 0.0
28/05:44am 1.6 -0.9 1.5 99 0.0 N 4 6 2 3 1023.5 - 0.0
28/05:30am 0.8 -2.2 0.7 99 0.0 N 6 7 3 4 1023.3 - 0.0
28/05:00am 1.0 -2.2 0.9 99 0.0 NNW 7 9 4 5 1022.8 - 0.0
28/04:43am 0.8 -1.1 0.7 99 0.0 CALM 0 0 0 0 1022.8 - 0.0
28/04:30am 0.9 -1.3 0.8 99 0.0 S 2 6 1 3 1022.8 - 0.0
28/04:03am 1.8 -1.1 1.7 99 0.0 S 6 9 3 5 1023.0 - 0.0
28/04:00am 2.0 -0.4 1.9 99 0.0 SSE 4 9 2 5 1023.0 - 0.0
28/03:30am 2.2 0.5 2.1 99 0.0 CALM 0 0 0 0 1022.8 - 0.0
28/03:26am 2.0 0.3 1.9 99 0.0 CALM 0 0 0 0 1022.8 - 0.0
28/03:00am 2.2 0.5 2.1 99 0.0 CALM 0 0 0 0 1023.1 1023.5 0.0
28/02:45am 2.8 1.2 2.7 99 0.0 CALM 0 0 0 0 1023.0 - 0.0
28/02:43am 2.5 0.9 2.4 99 0.0 CALM 0 0 0 0 1023.0 - 0.0
28/02:30am 2.0 0.3 1.9 99 0.0 CALM 0 0 0 0 1023.2 - 0.0
28/02:15am 1.9 0.2 1.8 99 0.0 CALM 0 0 0 0 1023.3 - 0.0
28/02:00am 2.4 0.0 2.3 99 0.0 ESE 4 9 2 5 1023.3 - 0.0
28/01:59am 2.4 0.0 2.3 99 0.0 ESE 4 9 2 5 1023.3 - 0.0
28/01:51am 2.8 -0.1 2.7 99 0.0 ESE 7 9 4 5 1023.3 - 0.0
28/01:30am 1.3 -2.2 1.2 99 0.0 S 9 11 5 6 1023.4 - 0.0
28/01:00am 3.2 0.6 3.1 99 0.0 SSE 6 7 3 4 1023.5 - 0.0
28/12:30am 2.5 -0.4 2.4 99 0.0 S 7 9 4 5 1023.5 - 0.0
28/12:00am 3.9 1.2 3.8 99 0.0 S 7 7 4 4 1023.5 1023.9 0.0
 
Date/Time
EST
Temp
°C
App
Temp
°C
Dew
Point
Rel
Hum
%
Delta-T
°C
Wind Press
QNH
hPa
Press
MSL
hPa
Rain
since 9 am
mm
Dir
 
Spd
km/h
Gust
km/h
Spd
kts
Gust
kts
27/11:41pm 4.4 3.1 4.3 99 0.0 CALM 0 0 0 0 1023.5 - 0.0
27/11:30pm 3.4 1.9 3.1 98 0.1 CALM 0 0 0 0 1023.6 - 0.0
27/11:24pm 3.8 2.4 3.4 97 0.2 CALM 0 0 0 0 1023.6 - 0.0
27/11:00pm 3.9 2.5 3.6 98 0.1 CALM 0 4 0 2 1023.7 - 0.0
27/10:30pm 4.3 2.5 3.6 95 0.3 NW 2 7 1 4 1023.6 - 0.0
27/10:00pm 5.6 3.7 4.7 94 0.4 N 4 7 2 4 1023.8 - 0.0
27/09:30pm 5.9 3.4 4.9 93 0.4 ENE 7 9 4 5 1023.8 - 0.0
27/09:00pm 5.8 3.0 5.2 96 0.3 SE 9 11 5 6 1023.9 1024.3 0.0
27/08:30pm 6.0 3.5 4.6 91 0.6 NE 7 7 4 4 1023.8 - 0.0
27/08:00pm 6.7 4.3 5.3 91 0.6 SE 7 11 4 6 1023.7 - 0.0
27/07:30pm 8.6 6.4 6.1 84 1.2 ENE 7 11 4 6 1023.5 - 0.0
27/07:00pm 9.6 7.1 6.5 81 1.5 N 9 11 5 6 1023.3 - 0.0
27/06:30pm 10.4 6.9 7.1 80 1.6 WNW 15 19 8 10 1023.1 - 0.0
27/06:00pm 10.7 8.3 6.8 77 1.9 NNW 9 13 5 7 1022.8 1023.3 0.0
27/05:30pm 11.1 8.7 6.8 75 2.1 NNW 9 13 5 7 1022.7 - 0.0
27/05:00pm 12.2 8.4 7.5 73 2.4 NW 17 20 9 11 1022.5 - 0.0
27/04:30pm 13.1 8.7 7.3 68 2.9 WNW 20 26 11 14 1022.1 - 0.0
27/04:00pm 14.8 10.6 7.6 62 3.7 WNW 19 26 10 14 1022.2 - 0.0
27/03:30pm 14.6 10.2 7.2 61 3.7 WNW 20 28 11 15 1022.3 - 0.0
27/03:00pm 15.4 10.4 7.9 61 3.9 WNW 24 32 13 17 1022.2 1022.6 0.0
27/02:30pm 14.7 10.1 8.0 64 3.5 NW 22 28 12 15 1022.4 - 0.0
27/02:00pm 15.0 11.1 7.3 60 3.9 WNW 17 20 9 11 1022.5 - 0.0
27/01:30pm 16.1 12.2 7.1 55 4.6 W 17 24 9 13 1022.6 - 0.0
27/01:00pm 16.1 11.5 6.5 53 4.8 WNW 20 26 11 14 1022.7 - 0.0
27/12:30pm 16.3 11.9 6.7 53 4.9 NW 19 26 10 14 1023.2 - 0.0
27/12:00pm 13.7 10.6 5.6 58 3.9 SW 11 17 6 9 1023.8 1024.2 0.0
27/11:30am 13.5 11.5 6.1 61 3.6 NNW 6 9 3 5 1024.3 - 0.0
27/11:00am 11.6 9.3 5.5 66 2.9 NW 7 11 4 6 1025.0 - 0.0
27/10:30am 10.6 8.3 5.8 72 2.3 WNW 7 11 4 6 1025.3 - 0.0
27/10:00am 9.1 6.9 5.1 76 1.9 N 6 9 3 5 1025.6 - 0.0
27/09:30am 7.5 5.2 4.6 82 1.3 NW 6 9 3 5 1025.8 - 0.0
27/09:00am 6.9 4.4 4.6 85 1.0 ESE 7 7 4 4 1025.8 1026.3 0.0
27/08:30am 4.7 3.3 3.8 94 0.4 CALM 0 0 0 0 1025.7 - 0.0
27/08:00am 2.1 0.4 1.8 98 0.1 CALM 0 0 0 0 1025.7 - 0.0
27/07:30am 1.1 -1.5 0.7 97 0.2 N 4 7 2 4 1025.4 - 0.0
27/07:00am 0.8 -2.3 0.4 97 0.2 N 6 7 3 4 1025.2 - 0.0
27/06:30am 0.9 -2.1 0.5 97 0.2 ESE 6 7 3 4 1024.8 - 0.0
27/06:00am 0.6 -1.7 0.2 97 0.2 N 2 9 1 5 1024.5 1025.0 0.0
27/05:30am 1.8 -1.3 1.1 95 0.3 N 7 7 4 4 1024.1 - 0.0
27/05:00am 2.2 0.0 1.3 94 0.4 S 2 7 1 4 1023.8 - 0.0
27/04:30am 2.5 -0.6 1.3 92 0.5 S 7 7 4 4 1023.9 - 0.0
27/04:00am 3.3 0.3 2.1 92 0.5 SSE 7 11 4 6 1024.5 - 0.0
27/03:30am 3.5 0.7 2.3 92 0.5 S 6 7 3 4 1024.9 - 0.0
27/03:00am 3.6 0.8 2.3 91 0.5 E 6 7 3 4 1025.0 1025.4 0.0
27/02:30am 3.3 0.5 2.3 93 0.4 E 6 7 3 4 1025.3 - 0.0
27/02:00am 3.4 1.7 1.9 90 0.6 CALM 0 4 0 2 1025.4 - 0.0
27/01:30am 3.3 0.3 2.0 91 0.5 ENE 7 11 4 6 1025.4 - 0.0
27/01:00am 3.0 1.2 1.1 87 0.8 CALM 0 0 0 0 1025.4 - 0.0
27/12:30am 3.8 2.1 2.0 88 0.7 CALM 0 6 0 3 1025.5 - 0.0
27/12:00am 3.4 0.6 2.1 91 0.5 E 6 9 3 5 1025.9 1026.4 0.0
 
Date/Time
EST
Temp
°C
App
Temp
°C
Dew
Point
Rel
Hum
%
Delta-T
°C
Wind Press
QNH
hPa
Press
MSL
hPa
Rain
since 9 am
mm
Dir
 
Spd
km/h
Gust
km/h
Spd
kts
Gust
kts
26/11:30pm 2.4 0.2 0.9 90 0.6 N 2 6 1 3 1026.1 - 0.0
26/11:00pm 3.7 0.9 2.1 89 0.7 NNE 6 7 3 4 1026.2 - 0.0
26/10:30pm 4.8 2.9 2.7 86 0.9 WNW 2 7 1 4 1026.4 - 0.0
26/10:00pm 4.6 3.0 2.3 85 1.0 CALM 0 7 0 4 1026.2 - 0.0
26/09:30pm 5.6 2.8 2.9 83 1.2 E 7 11 4 6 1026.3 - 0.0
26/09:00pm 6.0 3.9 3.7 85 1.0 S 4 9 2 5 1026.8 1027.2 0.0
26/08:30pm 5.6 3.0 3.3 85 1.0 SE 6 9 3 5 1026.8 - 0.0
26/08:00pm 6.6 3.5 3.8 82 1.2 N 9 11 5 6 1026.7 - 0.0
26/07:30pm 6.5 3.8 3.7 82 1.2 NNW 7 11 4 6 1026.5 - 0.0
26/07:00pm 7.2 4.1 3.6 78 1.6 E 9 9 5 5 1026.5 - 0.0
26/06:30pm 6.5 3.4 3.7 82 1.2 ESE 9 11 5 6 1026.5 - 0.0
26/06:00pm 7.7 5.1 3.2 73 2.0 ENE 6 7 3 4 1026.4 1026.9 0.0
26/05:30pm 10.1 8.8 4.0 66 2.8 CALM 0 6 0 3 1026.3 - 0.0
26/05:00pm 9.7 6.3 2.1 59 3.3 WNW 9 13 5 7 1026.1 - 0.0
26/04:30pm 10.5 7.3 3.1 60 3.3 NW 9 11 5 6 1025.9 - 0.0

Other Formats:

Comma delimited format used in spreadsheet applications
http://www.bom.gov.au/fwo/IDN60801/IDN60801.94926.axf

JavaScript Object Notation format (JSON) in row-major order
http://www.bom.gov.au/fwo/IDN60801/IDN60801.94926.json